createdAt,value
2019-06-08T00:01:22.851Z,63.60
2019-06-08T00:03:52.875Z,63.80
2019-06-08T00:06:23.078Z,63.90
2019-06-08T00:08:52.954Z,64.70
2019-06-08T00:11:23.410Z,64.20
2019-06-08T00:13:53.384Z,64.40
2019-06-08T00:16:23.823Z,64.60
2019-06-08T00:18:53.645Z,64.80
2019-06-08T00:21:24.166Z,64.80
2019-06-08T00:23:53.975Z,64.90
2019-06-08T00:26:24.419Z,65.00
2019-06-08T00:28:54.435Z,65.00
2019-06-08T00:31:24.185Z,65.10
2019-06-08T00:33:53.885Z,65.10
2019-06-08T00:36:24.961Z,65.00
2019-06-08T00:38:54.858Z,65.20
2019-06-08T00:41:25.412Z,65.30
2019-06-08T00:43:55.197Z,65.30
2019-06-08T00:46:25.731Z,65.20
2019-06-08T00:48:55.493Z,65.30
2019-06-08T00:51:25.549Z,65.40
2019-06-08T00:53:55.426Z,65.40
2019-06-08T00:56:26.011Z,65.60
2019-06-08T00:58:55.742Z,66.40
2019-06-08T01:01:27.996Z,65.70
2019-06-08T01:03:56.872Z,65.90
2019-06-08T01:06:27.541Z,65.90
2019-06-08T01:08:57.400Z,66.10
2019-06-08T01:11:27.213Z,66.40
2019-06-08T01:13:56.870Z,66.50
2019-06-08T01:16:32.647Z,66.70
2019-06-08T01:19:02.281Z,66.90
2019-06-08T01:21:31.928Z,66.60
2019-06-08T01:24:01.629Z,66.50
2019-06-08T01:26:31.337Z,66.60
2019-06-08T01:29:01.004Z,66.60
2019-06-08T01:31:30.684Z,66.70
2019-06-08T01:34:00.432Z,66.80
2019-06-08T01:36:31.195Z,66.70
2019-06-08T01:39:00.941Z,66.80
2019-06-08T01:41:31.738Z,66.70
2019-06-08T01:44:01.466Z,66.90
2019-06-08T01:46:32.378Z,66.80
2019-06-08T01:49:02.170Z,79.20
2019-06-08T01:54:00.797Z,85.40
2019-06-08T01:56:31.225Z,73.00
2019-06-08T01:59:01.067Z,66.70
2019-06-08T02:01:31.967Z,66.90
2019-06-08T02:04:01.877Z,67.00
2019-06-08T02:06:32.447Z,67.00
2019-06-08T02:09:02.183Z,67.00
2019-06-08T02:11:34.939Z,67.10
2019-06-08T02:14:04.974Z,67.30
2019-06-08T02:16:35.448Z,67.40
2019-06-08T02:19:05.198Z,67.50
2019-06-08T02:21:35.015Z,67.60
2019-06-08T02:24:04.827Z,67.50
2019-06-08T02:26:36.292Z,67.70
2019-06-08T02:29:06.145Z,67.60
2019-06-08T02:31:37.754Z,67.50
2019-06-08T02:34:07.163Z,67.60
2019-06-08T02:36:37.843Z,67.50
2019-06-08T02:39:08.677Z,67.60
2019-06-08T02:41:39.945Z,67.50
2019-06-08T02:44:09.889Z,67.60
2019-06-08T02:46:40.436Z,67.60
2019-06-08T02:49:10.302Z,67.70
2019-06-08T02:51:41.200Z,67.80
2019-06-08T02:54:12.453Z,67.80
2019-06-08T02:56:43.436Z,67.80
2019-06-08T02:59:15.436Z,67.70
2019-06-08T03:01:48.681Z,67.60
2019-06-08T03:04:19.194Z,67.60
2019-06-08T03:06:51.183Z,67.50
2019-06-08T03:09:22.451Z,67.40
2019-06-08T03:12:00.084Z,67.50
2019-06-08T03:14:31.126Z,68.00
2019-06-08T03:17:00.977Z,67.30
2019-06-08T03:19:31.305Z,67.10
2019-06-08T03:22:01.283Z,67.80
2019-06-08T03:24:32.377Z,67.20
2019-06-08T03:27:02.393Z,67.20
2019-06-08T03:29:32.457Z,67.30
2019-06-08T03:32:02.365Z,67.30
2019-06-08T03:34:34.625Z,67.50
2019-06-08T03:37:03.579Z,67.30
2019-06-08T03:39:35.004Z,67.30
2019-06-08T03:42:04.560Z,67.10
2019-06-08T03:44:34.309Z,67.10
2019-06-08T03:47:04.043Z,66.80
2019-06-08T03:49:42.816Z,66.70
2019-06-08T03:52:05.161Z,66.70
2019-06-08T03:54:36.081Z,66.70
2019-06-08T03:57:06.112Z,66.60
2019-06-08T03:59:36.120Z,66.50
2019-06-08T04:02:06.051Z,66.40
2019-06-08T04:04:37.739Z,66.30
2019-06-08T04:07:07.048Z,66.30
2019-06-08T04:09:37.747Z,66.40
2019-06-08T04:12:07.686Z,66.60
2019-06-08T04:14:44.312Z,66.60
2019-06-08T04:17:14.008Z,68.60
2019-06-08T04:20:03.058Z,66.60
2019-06-08T04:22:14.925Z,66.60
2019-06-08T04:24:45.123Z,66.50
2019-06-08T04:27:16.160Z,66.40
2019-06-08T04:29:46.161Z,66.30
2019-06-08T04:32:16.051Z,66.30
2019-06-08T04:34:47.407Z,66.30
2019-06-08T04:37:17.142Z,66.20
2019-06-08T04:39:47.090Z,66.20
2019-06-08T04:42:16.914Z,66.30
2019-06-08T04:44:47.066Z,66.40
2019-06-08T04:47:18.175Z,66.20
2019-06-08T04:49:48.933Z,66.10
2019-06-08T04:52:18.647Z,66.00
2019-06-08T04:54:49.791Z,65.90
2019-06-08T04:57:19.745Z,66.00
2019-06-08T04:59:50.408Z,66.10
2019-06-08T05:02:20.287Z,66.00
2019-06-08T05:04:49.982Z,66.00
2019-06-08T05:07:19.651Z,65.80
2019-06-08T05:09:49.568Z,65.70
2019-06-08T05:12:19.355Z,65.50
2019-06-08T05:14:49.271Z,65.90
2019-06-08T05:17:19.031Z,65.60
2019-06-08T05:19:50.349Z,65.50
2019-06-08T05:22:20.122Z,65.40
2019-06-08T05:24:50.145Z,65.30
2019-06-08T05:27:19.965Z,65.30
2019-06-08T05:29:50.056Z,65.60
2019-06-08T05:32:19.898Z,65.70
2019-06-08T05:34:49.784Z,66.30
2019-06-08T05:37:19.457Z,65.50
2019-06-08T05:39:49.952Z,65.30
2019-06-08T05:42:19.821Z,65.30
2019-06-08T05:44:50.310Z,65.10
2019-06-08T05:47:20.288Z,64.80
2019-06-08T05:49:50.067Z,64.60
2019-06-08T05:52:19.811Z,64.40
2019-06-08T05:54:50.202Z,64.20
2019-06-08T05:57:19.968Z,63.90
2019-06-08T05:59:50.327Z,63.60
2019-06-08T06:02:22.506Z,63.50
2019-06-08T06:04:53.917Z,63.70
2019-06-08T06:07:23.712Z,63.10
2019-06-08T06:09:53.388Z,62.90
2019-06-08T06:12:23.066Z,63.00
2019-06-08T06:14:52.816Z,62.90
2019-06-08T06:17:23.685Z,62.70
2019-06-08T06:19:53.344Z,62.60
2019-06-08T06:22:23.028Z,62.40
2019-06-08T06:24:52.706Z,62.20
2019-06-08T06:27:22.393Z,62.30
2019-06-08T06:29:52.226Z,62.10
2019-06-08T06:32:21.932Z,62.20
2019-06-08T06:34:52.162Z,62.20
2019-06-08T06:37:22.193Z,62.30
2019-06-08T06:39:52.446Z,62.30
2019-06-08T06:42:24.771Z,62.30
2019-06-08T06:44:53.511Z,62.40
2019-06-08T06:47:23.212Z,62.80
2019-06-08T06:49:52.923Z,62.10
2019-06-08T06:52:22.608Z,62.30
2019-06-08T06:54:53.262Z,61.90
2019-06-08T06:57:23.103Z,61.80
2019-06-08T06:59:54.051Z,61.60
2019-06-08T07:02:24.011Z,61.50
2019-06-08T07:04:54.339Z,61.40
2019-06-08T07:07:24.262Z,61.20
2019-06-08T07:09:55.006Z,61.10
2019-06-08T07:12:24.840Z,60.90
2019-06-08T07:14:55.554Z,60.70
2019-06-08T07:17:25.309Z,60.40
2019-06-08T07:19:55.192Z,60.10
2019-06-08T07:22:25.077Z,60.00
2019-06-08T07:24:54.865Z,60.00
2019-06-08T07:27:24.706Z,60.40
2019-06-08T07:29:54.778Z,59.40
2019-06-08T07:32:24.578Z,59.20
2019-06-08T07:34:55.324Z,59.20
2019-06-08T07:37:25.416Z,58.80
2019-06-08T07:39:56.110Z,58.50
2019-06-08T07:42:26.038Z,58.00
2019-06-08T07:44:56.058Z,57.60
2019-06-08T07:47:25.791Z,57.20
2019-06-08T07:49:55.667Z,57.10
2019-06-08T07:52:25.439Z,56.80
2019-06-08T07:54:56.550Z,56.20
2019-06-08T07:57:26.351Z,55.80
2019-06-08T07:59:56.401Z,55.50
2019-06-08T08:02:26.304Z,55.50
2019-06-08T08:04:56.787Z,55.80
2019-06-08T08:07:26.607Z,55.90
2019-06-08T08:09:57.034Z,55.50
2019-06-08T08:12:26.977Z,54.90
2019-06-08T08:14:58.068Z,54.60
2019-06-08T08:17:28.254Z,53.80
2019-06-08T08:19:59.452Z,53.40
2019-06-08T08:22:29.734Z,53.20
2019-06-08T08:25:04.136Z,53.00
2019-06-08T08:27:31.010Z,52.40
2019-06-08T08:30:02.063Z,51.90
2019-06-08T08:32:32.076Z,51.50
2019-06-08T08:35:03.039Z,51.20
2019-06-08T08:37:32.993Z,51.00
2019-06-08T08:40:02.824Z,50.90
2019-06-08T08:42:32.638Z,50.60
2019-06-08T08:45:05.078Z,50.60
2019-06-08T08:47:33.818Z,50.40
2019-06-08T08:50:03.722Z,50.70
2019-06-08T08:52:37.224Z,50.80
2019-06-08T08:55:05.543Z,50.60
2019-06-08T08:57:35.310Z,50.30
2019-06-08T09:00:08.347Z,50.20
2019-06-08T09:02:37.519Z,50.40
2019-06-08T09:05:08.594Z,50.60
2019-06-08T09:07:38.775Z,50.80
2019-06-08T09:10:11.649Z,50.80
2019-06-08T09:12:41.565Z,50.90
2019-06-08T09:15:11.379Z,51.30
2019-06-08T09:17:41.185Z,51.60
2019-06-08T09:20:15.496Z,52.00
2019-06-08T09:22:53.953Z,52.30
2019-06-08T09:25:14.878Z,52.50
2019-06-08T09:27:44.606Z,55.70
2019-06-08T09:30:14.553Z,52.60
2019-06-08T09:32:44.389Z,53.00
2019-06-08T09:35:14.571Z,52.80
2019-06-08T09:37:44.292Z,52.60
2019-06-08T09:40:14.333Z,53.60
2019-06-08T09:42:44.164Z,52.50
2019-06-08T09:45:14.621Z,52.10
2019-06-08T09:47:44.734Z,51.10
2019-06-08T09:50:22.129Z,50.40
2019-06-08T09:53:06.042Z,49.90
2019-06-08T09:55:23.241Z,50.20
2019-06-08T09:57:54.532Z,49.60
2019-06-08T10:00:29.102Z,49.10
2019-06-08T10:03:02.199Z,48.70
2019-06-08T10:05:28.844Z,48.50
2019-06-08T10:08:01.707Z,48.30
2019-06-08T10:10:30.007Z,48.10
2019-06-08T10:13:01.938Z,47.80
2019-06-08T10:15:31.222Z,47.50
2019-06-08T10:18:01.094Z,47.30
2019-06-08T10:20:30.955Z,47.40
2019-06-08T10:23:03.142Z,47.60
2019-06-08T10:25:32.391Z,47.90
2019-06-08T10:28:07.867Z,48.70
2019-06-08T10:30:33.517Z,48.30
2019-06-08T10:33:05.188Z,48.20
2019-06-08T10:35:34.654Z,48.10
2019-06-08T10:38:07.948Z,48.10
2019-06-08T10:40:38.317Z,49.00
2019-06-08T10:43:09.904Z,48.70
2019-06-08T10:45:39.649Z,48.90
2019-06-08T10:48:09.701Z,48.90
2019-06-08T10:50:39.401Z,49.20
2019-06-08T10:53:11.924Z,49.10
2019-06-08T10:55:41.867Z,49.10
2019-06-08T10:58:12.006Z,49.10
2019-06-08T11:00:43.914Z,49.00
2019-06-08T11:03:14.076Z,48.80
2019-06-08T11:05:48.311Z,48.70
2019-06-08T11:08:19.055Z,48.80
2019-06-08T11:10:48.893Z,48.80
2019-06-08T11:13:19.073Z,49.00
2019-06-08T11:15:49.248Z,48.80
2019-06-08T11:18:20.846Z,48.60
2019-06-08T11:20:50.672Z,48.40
2019-06-08T11:23:21.049Z,48.60
2019-06-08T11:25:50.830Z,48.90
2019-06-08T11:28:24.022Z,49.10
2019-06-08T11:30:54.834Z,49.20
2019-06-08T11:33:25.803Z,49.50
2019-06-08T11:35:58.194Z,49.50
2019-06-08T11:38:29.453Z,49.50
2019-06-08T11:41:00.973Z,48.90
2019-06-08T11:43:30.745Z,48.80
2019-06-08T11:46:00.623Z,49.70
2019-06-08T11:48:30.329Z,48.60
2019-06-08T11:51:00.583Z,48.70
2019-06-08T11:53:30.454Z,48.50
2019-06-08T11:56:02.708Z,48.20
2019-06-08T11:58:38.157Z,47.40
2019-06-08T12:01:13.150Z,47.30
2019-06-08T12:03:40.827Z,47.00
2019-06-08T12:06:12.988Z,46.90
2019-06-08T12:08:42.005Z,47.20
2019-06-08T12:11:18.136Z,46.90
2019-06-08T12:13:48.489Z,46.80
2019-06-08T12:16:19.535Z,46.80
2019-06-08T12:18:49.222Z,46.50
2019-06-08T12:21:18.740Z,46.50
2019-06-08T12:23:48.484Z,46.20
2019-06-08T12:26:18.222Z,45.90
2019-06-08T12:28:48.630Z,46.10
2019-06-08T12:31:22.381Z,45.80
2019-06-08T12:33:50.470Z,46.00
2019-06-08T12:36:20.959Z,45.60
2019-06-08T12:38:50.902Z,46.70
2019-06-08T12:41:20.668Z,46.00
2019-06-08T12:43:50.400Z,45.30
2019-06-08T12:46:21.689Z,45.50
2019-06-08T12:48:51.416Z,44.90
2019-06-08T12:51:21.743Z,45.20
2019-06-08T12:53:51.704Z,45.00
2019-06-08T12:56:24.032Z,44.50
2019-06-08T12:58:53.019Z,44.20
2019-06-08T13:01:22.668Z,43.60
2019-06-08T13:03:52.348Z,42.80
2019-06-08T13:06:22.073Z,42.20
2019-06-08T13:08:52.115Z,41.90
2019-06-08T13:11:21.760Z,41.60
2019-06-08T13:13:51.494Z,41.50
2019-06-08T13:16:24.172Z,41.20
2019-06-08T13:18:52.593Z,41.20
2019-06-08T13:21:33.774Z,40.40
2019-06-08T13:23:53.701Z,39.40
2019-06-08T13:26:27.947Z,38.80
2019-06-08T13:28:54.881Z,38.80
2019-06-08T13:31:29.013Z,38.00
2019-06-08T13:33:58.930Z,37.70
2019-06-08T13:36:29.638Z,36.70
2019-06-08T13:39:02.016Z,36.50
2019-06-08T13:41:33.434Z,35.00
2019-06-08T13:44:03.184Z,34.30
2019-06-08T13:46:32.914Z,33.90
2019-06-08T13:49:03.023Z,34.10
2019-06-08T13:51:32.797Z,34.00
2019-06-08T13:54:02.583Z,33.80
2019-06-08T13:56:32.755Z,33.80
2019-06-08T13:59:02.577Z,34.00
2019-06-08T14:01:32.259Z,34.00
2019-06-08T14:04:02.031Z,33.50
2019-06-08T14:06:31.770Z,32.80
2019-06-08T14:09:01.427Z,32.30
2019-06-08T14:11:31.112Z,33.00
2019-06-08T14:14:01.483Z,32.50
2019-06-08T14:16:31.499Z,32.90
2019-06-08T14:19:01.453Z,33.30
2019-06-08T14:21:38.537Z,33.70
2019-06-08T14:24:03.088Z,33.80
2019-06-08T14:26:32.770Z,34.80
2019-06-08T14:29:02.969Z,34.20
2019-06-08T14:31:32.622Z,34.60
2019-06-08T14:34:02.290Z,34.90
2019-06-08T14:36:33.117Z,35.00
2019-06-08T14:39:10.006Z,35.20
2019-06-08T14:41:37.457Z,34.90
2019-06-08T14:44:08.337Z,34.30
2019-06-08T14:46:41.155Z,34.00
2019-06-08T14:49:11.238Z,33.70
2019-06-08T14:51:50.616Z,33.80
2019-06-08T14:54:26.318Z,34.30
2019-06-08T14:56:54.192Z,34.70
2019-06-08T14:59:24.233Z,35.20
2019-06-08T15:01:55.036Z,35.80
2019-06-08T15:04:32.292Z,36.30
2019-06-08T15:06:58.411Z,36.40
2019-06-08T15:09:27.759Z,36.70
2019-06-08T15:11:58.159Z,37.00
2019-06-08T15:14:33.635Z,37.30
2019-06-08T15:17:00.279Z,37.60
2019-06-08T15:19:32.186Z,38.00
2019-06-08T15:22:01.261Z,38.20
2019-06-08T15:24:32.331Z,38.40
2019-06-08T15:27:02.182Z,38.70
2019-06-08T15:29:32.836Z,38.80
2019-06-08T15:32:02.628Z,38.90
2019-06-08T15:34:33.241Z,38.90
2019-06-08T15:37:03.007Z,39.00
2019-06-08T15:39:34.264Z,39.10
2019-06-08T15:42:04.187Z,39.10
2019-06-08T15:44:34.030Z,39.40
2019-06-08T15:47:03.842Z,38.90
2019-06-08T15:49:33.896Z,38.80
2019-06-08T15:52:03.753Z,38.50
2019-06-08T15:54:36.238Z,38.20
2019-06-08T15:57:05.047Z,37.90
2019-06-08T15:59:39.000Z,37.60
2019-06-08T16:02:06.351Z,37.40
2019-06-08T16:04:36.323Z,37.50
2019-06-08T16:07:06.323Z,37.70
2019-06-08T16:09:36.068Z,37.70
2019-06-08T16:12:05.776Z,37.90
2019-06-08T16:14:35.487Z,39.00
2019-06-08T16:17:05.178Z,37.50
2019-06-08T16:19:35.946Z,37.20
2019-06-08T16:22:05.939Z,36.80
2019-06-08T16:24:36.258Z,36.80
2019-06-08T16:27:06.672Z,36.70
2019-06-08T16:29:36.317Z,36.40
2019-06-08T16:32:06.035Z,36.10
2019-06-08T16:34:35.726Z,35.90
2019-06-08T16:37:05.497Z,35.60
2019-06-08T16:39:35.178Z,35.60
2019-06-08T16:42:04.929Z,35.60
2019-06-08T16:44:34.852Z,35.80
2019-06-08T16:47:04.992Z,36.00
2019-06-08T16:49:35.415Z,35.50
2019-06-08T16:52:05.286Z,34.90
2019-06-08T16:54:35.166Z,34.00
2019-06-08T16:57:10.077Z,32.80
2019-06-08T16:59:36.625Z,32.30
2019-06-08T17:02:06.408Z,32.10
2019-06-08T17:04:37.126Z,32.10
2019-06-08T17:07:06.881Z,32.30
2019-06-08T17:09:37.776Z,32.60
2019-06-08T17:12:07.552Z,32.80
2019-06-08T17:14:38.642Z,32.70
2019-06-08T17:17:08.498Z,32.90
2019-06-08T17:19:38.531Z,33.10
2019-06-08T17:22:08.253Z,33.50
2019-06-08T17:24:38.659Z,33.80
2019-06-08T17:27:08.717Z,34.10
2019-06-08T17:29:39.046Z,34.40
2019-06-08T17:32:08.871Z,34.60
2019-06-08T17:34:38.506Z,34.90
2019-06-08T17:37:08.475Z,35.20
2019-06-08T17:39:38.415Z,35.50
2019-06-08T17:42:08.127Z,35.70
2019-06-08T17:44:38.307Z,36.70
2019-06-08T17:47:08.153Z,36.10
2019-06-08T17:49:38.652Z,36.20
2019-06-08T17:52:08.562Z,36.30
2019-06-08T17:54:39.050Z,36.50
2019-06-08T17:57:08.688Z,36.90
2019-06-08T17:59:39.413Z,36.70
2019-06-08T18:02:12.078Z,35.20
2019-06-08T18:04:41.734Z,33.30
2019-06-08T18:07:12.367Z,31.70
2019-06-08T18:09:43.304Z,31.00
2019-06-08T18:12:13.316Z,31.10
2019-06-08T18:14:43.865Z,31.20
2019-06-08T18:17:17.005Z,31.10
2019-06-08T18:19:49.272Z,30.60
2019-06-08T18:22:18.688Z,29.80
2019-06-08T18:24:48.622Z,29.40
2019-06-08T18:27:18.508Z,29.00
2019-06-08T18:29:48.843Z,28.50
2019-06-08T18:32:18.801Z,28.50
2019-06-08T18:34:48.442Z,28.30
2019-06-08T18:37:18.456Z,28.30
2019-06-08T18:39:49.326Z,28.40
2019-06-08T18:42:20.404Z,28.60
2019-06-08T18:44:50.152Z,28.40
2019-06-08T18:47:19.802Z,28.50
2019-06-08T18:49:49.510Z,28.50
2019-06-08T18:52:19.188Z,28.60
2019-06-08T18:54:49.560Z,28.70
2019-06-08T18:57:19.547Z,28.70
2019-06-08T18:59:52.740Z,29.00
2019-06-08T19:02:20.774Z,29.30
2019-06-08T19:04:50.434Z,29.60
2019-06-08T19:07:20.216Z,29.80
2019-06-08T19:09:50.366Z,30.00
2019-06-08T19:12:19.996Z,30.30
2019-06-08T19:14:52.372Z,30.60
2019-06-08T19:17:21.631Z,30.90
2019-06-08T19:19:52.374Z,31.10
2019-06-08T19:22:22.441Z,31.20
2019-06-08T19:24:52.093Z,31.50
2019-06-08T19:27:21.739Z,31.90
2019-06-08T19:29:51.796Z,32.20
2019-06-08T19:32:21.709Z,32.30
2019-06-08T19:34:54.431Z,32.70
2019-06-08T19:37:22.919Z,33.10
2019-06-08T19:39:52.560Z,33.60
2019-06-08T19:42:35.587Z,33.90
2019-06-08T19:45:01.283Z,34.40
2019-06-08T19:47:27.076Z,34.80
2019-06-08T19:49:57.697Z,35.20
2019-06-08T19:52:27.814Z,35.60
2019-06-08T19:54:58.110Z,35.90
2019-06-08T19:57:28.404Z,36.20
2019-06-08T20:00:00.346Z,36.50
2019-06-08T20:02:29.595Z,36.80
2019-06-08T20:04:59.296Z,37.00
2019-06-08T20:07:28.994Z,37.20
2019-06-08T20:09:58.704Z,37.30
2019-06-08T20:12:28.382Z,37.40
2019-06-08T20:14:58.148Z,37.50
2019-06-08T20:17:28.525Z,37.60
2019-06-08T20:19:58.485Z,37.70
2019-06-08T20:22:28.459Z,37.80
2019-06-08T20:24:58.144Z,37.90
2019-06-08T20:27:27.847Z,37.90
2019-06-08T20:29:58.214Z,37.90
2019-06-08T20:32:29.175Z,38.00
2019-06-08T20:34:58.875Z,38.10
2019-06-08T20:37:28.712Z,38.10
2019-06-08T20:40:09.810Z,38.10
2019-06-08T20:42:29.956Z,38.20
2019-06-08T20:45:00.515Z,38.40
2019-06-08T20:47:30.641Z,38.40
2019-06-08T20:50:00.277Z,38.50
2019-06-08T20:52:29.970Z,38.60
2019-06-08T20:54:59.658Z,38.70
2019-06-08T20:57:29.292Z,38.80
2019-06-08T20:59:58.911Z,39.10
2019-06-08T21:02:28.665Z,39.30
2019-06-08T21:04:59.497Z,39.40
2019-06-08T21:07:29.358Z,39.40
2019-06-08T21:09:59.087Z,39.40
2019-06-08T21:12:28.808Z,39.80
2019-06-08T21:14:58.419Z,39.40
2019-06-08T21:17:28.157Z,39.40
2019-06-08T21:19:58.053Z,39.40
2019-06-08T21:22:27.980Z,39.50
2019-06-08T21:25:00.096Z,39.60
2019-06-08T21:27:29.977Z,39.70
2019-06-08T21:30:06.643Z,39.60
2019-06-08T21:32:31.149Z,39.70
2019-06-08T21:35:00.810Z,39.70
2019-06-08T21:37:30.464Z,39.80
2019-06-08T21:40:03.607Z,39.90
2019-06-08T21:42:31.506Z,39.90
2019-06-08T21:45:03.981Z,40.00
2019-06-08T21:47:32.947Z,40.10
2019-06-08T21:50:02.625Z,40.10
2019-06-08T21:52:32.280Z,40.20
2019-06-08T21:55:01.992Z,40.40
2019-06-08T21:57:31.612Z,40.60
2019-06-08T22:00:19.209Z,40.90
2019-06-08T22:02:32.656Z,41.20
2019-06-08T22:05:04.643Z,41.50
2019-06-08T22:07:33.590Z,41.60
2019-06-08T22:10:03.510Z,41.80
2019-06-08T22:12:36.078Z,41.80
2019-06-08T22:15:07.336Z,41.80
2019-06-08T22:17:38.331Z,41.80
2019-06-08T22:20:08.318Z,41.90
2019-06-08T22:22:38.027Z,42.10
2019-06-08T22:25:18.947Z,42.10
2019-06-08T22:27:48.617Z,44.20
2019-06-08T22:30:35.120Z,42.80
2019-06-08T22:32:49.958Z,42.50
2019-06-08T22:35:19.661Z,42.30
2019-06-08T22:37:49.286Z,42.30
2019-06-08T22:40:18.935Z,42.30
2019-06-08T22:42:48.674Z,42.30
2019-06-08T22:45:18.299Z,42.30
2019-06-08T22:47:47.959Z,42.30
2019-06-08T22:50:18.771Z,42.40
2019-06-08T22:52:48.449Z,42.50
2019-06-08T22:55:18.737Z,42.50
2019-06-08T22:57:48.394Z,42.50
2019-06-08T23:00:21.708Z,42.60
2019-06-08T23:02:50.494Z,42.60
2019-06-08T23:05:20.128Z,42.90
2019-06-08T23:07:49.824Z,42.90
2019-06-08T23:10:19.462Z,43.10
2019-06-08T23:12:49.110Z,43.10
2019-06-08T23:15:19.028Z,43.20
2019-06-08T23:17:48.667Z,43.30
2019-06-08T23:20:18.697Z,43.40
2019-06-08T23:22:48.476Z,43.60
2019-06-08T23:25:18.450Z,43.60
2019-06-08T23:27:48.477Z,43.80
2019-06-08T23:30:18.949Z,43.90
2019-06-08T23:32:48.595Z,44.00
2019-06-08T23:35:18.390Z,44.00
2019-06-08T23:37:48.039Z,44.10
2019-06-08T23:40:18.018Z,44.10
2019-06-08T23:42:47.819Z,44.00
2019-06-08T23:45:17.771Z,44.10
2019-06-08T23:47:48.164Z,44.10
2019-06-08T23:50:18.422Z,44.10
2019-06-08T23:52:48.038Z,44.10
2019-06-08T23:55:18.322Z,44.30
2019-06-08T23:57:48.132Z,44.40
